CFG124 EDDF-MMSD
Flight info
| Callsign | CFG124 |
|---|---|
| Flight time | N/A |
| Altitude | 32000 |
| Route | OBOKA3M OBOKA Z28 DIBIR DCT BUDIP DCT RAVLO Y70 OTBED DCT ABLUC DCT OZRAT DCT WETFI DCT REVNU/N0460F340 DCT PIKIL/M080F340 DCT 56N020W 56N030W 56N040W 54N050W DCT NEEKO/N0461F340 DCT BAREE/N0467F360 DCT SYR J59 PSB DCT HVQ DCT HCH/N0466F380 DCT RQZ DCT FOGUM DCT CLOUT DCT WOSBU DCT LAREY DCT AEX DCT DAS DCT PSX J22 NLD UJ20 TRC UJ10 CUL UJ32 LEPOM LEPOM1B |
| Aircraft | A339/H-SADE1E2E3GHIJ3J5M1P2RWXY/LB2D1 |
Departure
| Time | N/A |
|---|---|
| Airport | Frankfurt Main Airport (EDDF) |
Arrival
| Time | 2026-04-25 10:12 |
|---|---|
| Airport | Los Cabos International Airport (MMSD) |
| Time | Latitude | Longitude | Altitude | Speed | Heading |
|---|---|---|---|---|---|
| 2026-04-25 07:27 | 31.70934 | -91.82202 | 37824 ft | 469 kts | 236° |
| 2026-04-25 07:27 | 31.68957 | -91.85198 | 37820 ft | 469 kts | 236° |
| 2026-04-25 07:28 | 31.64971 | -91.91232 | 37825 ft | 469 kts | 236° |
| 2026-04-25 07:28 | 31.60992 | -91.97234 | 37822 ft | 468 kts | 236° |
| 2026-04-25 07:29 | 31.56978 | -92.03291 | 37815 ft | 468 kts | 237° |
| 2026-04-25 07:29 | 31.53015 | -92.09257 | 37813 ft | 466 kts | 236° |
| 2026-04-25 07:30 | 31.49029 | -92.15252 | 37823 ft | 466 kts | 236° |
| 2026-04-25 07:30 | 31.45052 | -92.21222 | 37826 ft | 467 kts | 237° |
| 2026-04-25 07:31 | 31.41080 | -92.27169 | 37833 ft | 466 kts | 237° |
| 2026-04-25 07:31 | 31.37097 | -92.33124 | 37839 ft | 464 kts | 237° |
| 2026-04-25 07:32 | 31.33134 | -92.39033 | 37833 ft | 464 kts | 237° |
| 2026-04-25 07:32 | 31.29163 | -92.44952 | 37842 ft | 463 kts | 237° |
| 2026-04-25 07:33 | 31.25404 | -92.51058 | 37840 ft | 459 kts | 242° |
| 2026-04-25 07:33 | 31.22179 | -92.57435 | 37838 ft | 458 kts | 245° |
| 2026-04-25 07:34 | 31.19047 | -92.63895 | 37832 ft | 457 kts | 245° |
| 2026-04-25 07:34 | 31.15925 | -92.70322 | 37835 ft | 456 kts | 245° |
| 2026-04-25 07:35 | 31.12799 | -92.76743 | 37833 ft | 455 kts | 245° |
| 2026-04-25 07:35 | 31.09684 | -92.83130 | 37829 ft | 453 kts | 245° |
| 2026-04-25 07:36 | 31.06559 | -92.89526 | 37827 ft | 453 kts | 245° |
| 2026-04-25 07:36 | 31.03446 | -92.95883 | 37834 ft | 453 kts | 245° |
| 2026-04-25 07:37 | 31.00348 | -93.02205 | 37841 ft | 452 kts | 245° |
| 2026-04-25 07:37 | 30.97229 | -93.08561 | 37839 ft | 452 kts | 245° |
| 2026-04-25 07:38 | 30.94122 | -93.14879 | 37838 ft | 452 kts | 245° |
| 2026-04-25 07:38 | 30.90999 | -93.21217 | 37840 ft | 451 kts | 245° |
| 2026-04-25 07:39 | 30.87895 | -93.27508 | 37840 ft | 450 kts | 245° |
| 2026-04-25 07:39 | 30.84777 | -93.33817 | 37840 ft | 450 kts | 245° |
| 2026-04-25 07:40 | 30.81662 | -93.40109 | 37840 ft | 449 kts | 245° |
| 2026-04-25 07:40 | 30.78542 | -93.46401 | 37836 ft | 449 kts | 245° |
| 2026-04-25 07:41 | 30.75422 | -93.52681 | 37834 ft | 449 kts | 245° |
| 2026-04-25 07:41 | 30.72310 | -93.58938 | 37827 ft | 449 kts | 245° |
| 2026-04-25 07:42 | 30.69185 | -93.65208 | 37826 ft | 448 kts | 245° |
| 2026-04-25 07:42 | 30.66067 | -93.71455 | 37824 ft | 447 kts | 245° |
| 2026-04-25 07:43 | 30.62964 | -93.77660 | 37822 ft | 447 kts | 245° |
| 2026-04-25 07:43 | 30.59839 | -93.83903 | 37822 ft | 446 kts | 245° |
| 2026-04-25 07:44 | 30.56747 | -93.90070 | 37823 ft | 445 kts | 245° |
| 2026-04-25 07:44 | 30.53633 | -93.96267 | 37824 ft | 445 kts | 245° |
| 2026-04-25 07:45 | 30.50510 | -94.02473 | 37822 ft | 444 kts | 245° |
| 2026-04-25 07:45 | 30.47418 | -94.08607 | 37823 ft | 444 kts | 245° |
| 2026-04-25 07:46 | 30.44296 | -94.14793 | 37822 ft | 443 kts | 245° |
| 2026-04-25 07:46 | 30.41196 | -94.20924 | 37821 ft | 441 kts | 245° |
| 2026-04-25 07:47 | 30.38105 | -94.27024 | 37818 ft | 441 kts | 246° |
| 2026-04-25 07:47 | 30.35006 | -94.33131 | 37820 ft | 441 kts | 246° |
| 2026-04-25 07:48 | 30.31897 | -94.39250 | 37818 ft | 440 kts | 246° |
| 2026-04-25 07:48 | 30.28815 | -94.45300 | 37815 ft | 439 kts | 246° |
| 2026-04-25 07:49 | 30.25706 | -94.51387 | 37811 ft | 439 kts | 245° |
| 2026-04-25 07:49 | 30.22616 | -94.57426 | 37809 ft | 439 kts | 245° |
| 2026-04-25 07:50 | 30.19215 | -94.63293 | 37808 ft | 443 kts | 240° |
| 2026-04-25 07:50 | 30.15290 | -94.68856 | 37808 ft | 449 kts | 235° |
| 2026-04-25 07:51 | 30.10966 | -94.74084 | 37807 ft | 451 kts | 233° |
| 2026-04-25 07:51 | 30.06605 | -94.79270 | 37805 ft | 449 kts | 233° |
| 2026-04-25 07:52 | 30.02270 | -94.84418 | 37808 ft | 449 kts | 233° |
| 2026-04-25 07:52 | 29.97900 | -94.89592 | 37801 ft | 449 kts | 233° |
| 2026-04-25 07:53 | 29.93563 | -94.94720 | 37806 ft | 449 kts | 233° |
| 2026-04-25 07:53 | 29.89198 | -94.99876 | 37813 ft | 449 kts | 233° |
| 2026-04-25 07:54 | 29.84820 | -95.05037 | 37826 ft | 449 kts | 233° |
| 2026-04-25 07:54 | 29.80485 | -95.10148 | 37828 ft | 448 kts | 233° |
| 2026-04-25 07:55 | 29.76111 | -95.15290 | 37825 ft | 449 kts | 234° |
| 2026-04-25 07:55 | 29.71773 | -95.20384 | 37826 ft | 448 kts | 233° |
| 2026-04-25 07:56 | 29.67392 | -95.25521 | 37825 ft | 448 kts | 234° |
| 2026-04-25 07:56 | 29.63046 | -95.30615 | 37825 ft | 447 kts | 234° |
| 2026-04-25 07:57 | 29.58679 | -95.35722 | 37829 ft | 447 kts | 234° |
| 2026-04-25 07:57 | 29.54318 | -95.40820 | 37820 ft | 447 kts | 233° |
| 2026-04-25 07:58 | 29.49966 | -95.45897 | 37825 ft | 448 kts | 234° |
| 2026-04-25 07:58 | 29.45605 | -95.50980 | 37825 ft | 447 kts | 234° |
| 2026-04-25 07:59 | 29.41271 | -95.56023 | 37821 ft | 447 kts | 234° |
| 2026-04-25 07:59 | 29.36898 | -95.61105 | 37816 ft | 446 kts | 234° |
| 2026-04-25 08:00 | 29.32545 | -95.66157 | 37815 ft | 446 kts | 233° |
| 2026-04-25 08:00 | 29.28172 | -95.71227 | 37808 ft | 447 kts | 233° |
| 2026-04-25 08:01 | 29.23803 | -95.76284 | 37803 ft | 447 kts | 233° |
| 2026-04-25 08:01 | 29.19453 | -95.81314 | 37806 ft | 446 kts | 233° |
| 2026-04-25 08:02 | 29.15069 | -95.86377 | 37803 ft | 446 kts | 233° |
| 2026-04-25 08:02 | 29.10706 | -95.91406 | 37800 ft | 446 kts | 233° |
| 2026-04-25 08:03 | 29.06352 | -95.96421 | 37803 ft | 446 kts | 233° |
| 2026-04-25 08:03 | 29.02002 | -96.01423 | 37800 ft | 445 kts | 233° |
| 2026-04-25 08:04 | 28.97637 | -96.06435 | 37798 ft | 445 kts | 233° |
| 2026-04-25 08:04 | 28.93286 | -96.11424 | 37795 ft | 444 kts | 234° |
| 2026-04-25 08:05 | 28.88917 | -96.16428 | 37794 ft | 445 kts | 234° |
| 2026-04-25 08:05 | 28.84537 | -96.21428 | 37794 ft | 445 kts | 234° |
| 2026-04-25 08:06 | 28.80167 | -96.26417 | 37798 ft | 445 kts | 233° |
| 2026-04-25 08:06 | 28.75898 | -96.31462 | 37800 ft | 441 kts | 237° |
| 2026-04-25 08:07 | 28.71927 | -96.36771 | 37796 ft | 439 kts | 238° |
| 2026-04-25 08:07 | 28.67967 | -96.42070 | 37792 ft | 439 kts | 238° |
| 2026-04-25 08:08 | 28.64006 | -96.47362 | 37789 ft | 440 kts | 238° |
| 2026-04-25 08:08 | 28.60055 | -96.52634 | 37791 ft | 439 kts | 238° |
| 2026-04-25 08:09 | 28.56095 | -96.57912 | 37789 ft | 440 kts | 238° |
| 2026-04-25 08:09 | 28.52115 | -96.63208 | 37791 ft | 440 kts | 238° |
| 2026-04-25 08:10 | 28.48137 | -96.68491 | 37797 ft | 440 kts | 237° |
| 2026-04-25 08:10 | 28.44173 | -96.73747 | 37800 ft | 440 kts | 237° |
| 2026-04-25 08:11 | 28.40171 | -96.79047 | 37794 ft | 440 kts | 237° |
| 2026-04-25 08:11 | 28.36198 | -96.84322 | 37795 ft | 441 kts | 237° |
| 2026-04-25 08:12 | 28.32234 | -96.89586 | 37797 ft | 441 kts | 237° |
| 2026-04-25 08:12 | 28.28235 | -96.94880 | 37790 ft | 441 kts | 237° |
| 2026-04-25 08:13 | 28.24247 | -97.00141 | 37781 ft | 441 kts | 237° |
| 2026-04-25 08:14 | 28.18275 | -97.08008 | 37790 ft | 441 kts | 238° |
| 2026-04-25 08:14 | 28.14270 | -97.13276 | 37785 ft | 441 kts | 238° |
| 2026-04-25 08:15 | 28.10261 | -97.18539 | 37783 ft | 441 kts | 238° |
| 2026-04-25 08:15 | 28.06253 | -97.23790 | 37783 ft | 442 kts | 237° |
| 2026-04-25 08:16 | 28.02223 | -97.29061 | 37780 ft | 441 kts | 237° |
| 2026-04-25 08:16 | 27.98202 | -97.34317 | 37782 ft | 441 kts | 237° |
| 2026-04-25 08:17 | 27.94525 | -97.39783 | 37781 ft | 434 kts | 244° |
| 2026-04-25 08:17 | 27.91543 | -97.45622 | 37785 ft | 428 kts | 251° |
| 2026-04-25 08:18 | 27.89238 | -97.51788 | 37786 ft | 423 kts | 256° |
| 2026-04-25 08:18 | 27.87635 | -97.58128 | 37790 ft | 419 kts | 262° |
| 2026-04-25 08:19 | 27.86290 | -97.64486 | 37789 ft | 418 kts | 262° |
| 2026-04-25 08:19 | 27.84945 | -97.70860 | 37789 ft | 419 kts | 261° |
| 2026-04-25 08:20 | 27.83600 | -97.77256 | 37783 ft | 419 kts | 261° |
| 2026-04-25 08:20 | 27.82250 | -97.83661 | 37780 ft | 420 kts | 262° |
| 2026-04-25 08:21 | 27.80901 | -97.90055 | 37780 ft | 420 kts | 261° |
| 2026-04-25 08:21 | 27.79557 | -97.96418 | 37781 ft | 420 kts | 261° |
| 2026-04-25 08:22 | 27.78204 | -98.02803 | 37779 ft | 420 kts | 261° |
| 2026-04-25 08:22 | 27.76837 | -98.09238 | 37780 ft | 420 kts | 261° |
| 2026-04-25 08:23 | 27.75482 | -98.15604 | 37783 ft | 421 kts | 261° |
| 2026-04-25 08:23 | 27.74114 | -98.22015 | 37781 ft | 421 kts | 261° |
| 2026-04-25 08:24 | 27.72743 | -98.28422 | 37776 ft | 420 kts | 261° |
| 2026-04-25 08:24 | 27.71372 | -98.34819 | 37780 ft | 420 kts | 261° |
| 2026-04-25 08:25 | 27.70001 | -98.41193 | 37781 ft | 420 kts | 261° |
| 2026-04-25 08:25 | 27.68624 | -98.47581 | 37784 ft | 420 kts | 261° |
| 2026-04-25 08:26 | 27.67243 | -98.53965 | 37789 ft | 421 kts | 261° |
| 2026-04-25 08:26 | 27.65859 | -98.60362 | 37789 ft | 421 kts | 261° |
| 2026-04-25 08:27 | 27.64468 | -98.66775 | 37794 ft | 420 kts | 261° |
| 2026-04-25 08:27 | 27.63074 | -98.73174 | 37785 ft | 421 kts | 261° |
| 2026-04-25 08:28 | 27.61680 | -98.79565 | 37783 ft | 422 kts | 261° |
| 2026-04-25 08:28 | 27.60273 | -98.85995 | 37783 ft | 422 kts | 261° |
| 2026-04-25 08:29 | 27.58876 | -98.92374 | 37780 ft | 421 kts | 261° |
| 2026-04-25 08:29 | 27.57469 | -98.98776 | 37779 ft | 422 kts | 261° |
| 2026-04-25 08:30 | 27.56056 | -99.05187 | 37782 ft | 422 kts | 261° |
| 2026-04-25 08:30 | 27.54647 | -99.11562 | 37776 ft | 422 kts | 261° |
| 2026-04-25 08:31 | 27.53228 | -99.17961 | 37777 ft | 422 kts | 261° |
| 2026-04-25 08:31 | 27.51806 | -99.24362 | 37769 ft | 422 kts | 261° |
| 2026-04-25 08:32 | 27.50379 | -99.30751 | 37772 ft | 422 kts | 261° |
| 2026-04-25 08:32 | 27.48942 | -99.37167 | 37774 ft | 422 kts | 261° |
| 2026-04-25 08:33 | 27.47436 | -99.43564 | 37773 ft | 424 kts | 259° |
| 2026-04-25 08:33 | 27.45743 | -99.49898 | 37766 ft | 424 kts | 258° |
| 2026-04-25 08:34 | 27.44037 | -99.56242 | 37763 ft | 425 kts | 258° |
| 2026-04-25 08:34 | 27.42457 | -99.62603 | 37762 ft | 424 kts | 260° |
| 2026-04-25 08:35 | 27.40908 | -99.68987 | 37759 ft | 425 kts | 259° |
| 2026-04-25 08:35 | 27.39342 | -99.75362 | 37761 ft | 425 kts | 259° |
| 2026-04-25 08:36 | 27.37749 | -99.81792 | 37760 ft | 425 kts | 259° |
| 2026-04-25 08:36 | 27.36168 | -99.88155 | 37759 ft | 425 kts | 259° |
| 2026-04-25 08:37 | 27.34569 | -99.94550 | 37759 ft | 426 kts | 259° |
| 2026-04-25 08:37 | 27.32971 | -100.00952 | 37766 ft | 425 kts | 259° |
| 2026-04-25 08:38 | 27.31378 | -100.07355 | 37767 ft | 426 kts | 259° |
| 2026-04-25 08:38 | 27.29774 | -100.13774 | 37767 ft | 426 kts | 259° |
| 2026-04-25 08:39 | 27.28168 | -100.20152 | 37772 ft | 425 kts | 259° |
| 2026-04-25 08:39 | 27.26548 | -100.26548 | 37772 ft | 426 kts | 259° |
| 2026-04-25 08:40 | 27.24939 | -100.32903 | 37776 ft | 426 kts | 259° |
| 2026-04-25 08:40 | 27.23332 | -100.39317 | 37782 ft | 426 kts | 259° |
| 2026-04-25 08:41 | 27.21726 | -100.45682 | 37787 ft | 425 kts | 259° |
| 2026-04-25 08:41 | 27.20100 | -100.52094 | 37785 ft | 426 kts | 259° |
| 2026-04-25 08:42 | 27.18466 | -100.58501 | 37794 ft | 427 kts | 259° |
| 2026-04-25 08:42 | 27.17105 | -100.63811 | 37804 ft | 426 kts | 259° |
| 2026-04-25 08:43 | 27.15191 | -100.71273 | 37822 ft | 427 kts | 258° |
| 2026-04-25 08:43 | 27.13562 | -100.77685 | 37835 ft | 427 kts | 258° |
| 2026-04-25 08:44 | 27.12211 | -100.83004 | 37842 ft | 428 kts | 258° |
| 2026-04-25 08:44 | 27.10309 | -100.90440 | 37846 ft | 427 kts | 258° |
| 2026-04-25 08:45 | 27.08664 | -100.96843 | 37849 ft | 427 kts | 258° |
| 2026-04-25 08:45 | 27.07013 | -101.03241 | 37845 ft | 427 kts | 258° |
| 2026-04-25 08:46 | 27.05363 | -101.09618 | 37843 ft | 428 kts | 258° |
| 2026-04-25 08:46 | 27.03709 | -101.15993 | 37849 ft | 428 kts | 258° |
| 2026-04-25 08:47 | 27.02037 | -101.22414 | 37843 ft | 428 kts | 258° |
| 2026-04-25 08:47 | 27.00376 | -101.28777 | 37843 ft | 428 kts | 258° |
| 2026-04-25 08:48 | 26.98697 | -101.35197 | 37844 ft | 428 kts | 257° |
| 2026-04-25 08:48 | 26.96695 | -101.41464 | 37857 ft | 432 kts | 253° |
| 2026-04-25 08:49 | 26.94106 | -101.47564 | 37873 ft | 436 kts | 248° |
| 2026-04-25 08:49 | 26.90952 | -101.53397 | 37878 ft | 441 kts | 242° |
| 2026-04-25 08:50 | 26.87447 | -101.58662 | 37897 ft | 446 kts | 239° |
| 2026-04-25 08:50 | 26.83614 | -101.64118 | 37917 ft | 446 kts | 239° |
| 2026-04-25 08:51 | 26.79764 | -101.69578 | 37934 ft | 447 kts | 238° |
| 2026-04-25 08:51 | 26.75897 | -101.75046 | 37952 ft | 447 kts | 238° |
| 2026-04-25 08:52 | 26.72014 | -101.80526 | 37967 ft | 448 kts | 238° |
| 2026-04-25 08:52 | 26.68126 | -101.86007 | 37972 ft | 449 kts | 238° |
| 2026-04-25 08:53 | 26.64254 | -101.91465 | 37977 ft | 450 kts | 238° |
| 2026-04-25 08:53 | 26.60370 | -101.96955 | 37979 ft | 450 kts | 238° |
| 2026-04-25 08:54 | 26.56512 | -102.02399 | 37973 ft | 449 kts | 238° |
| 2026-04-25 08:54 | 26.52608 | -102.07890 | 37994 ft | 450 kts | 238° |
| 2026-04-25 08:55 | 26.48727 | -102.13333 | 38018 ft | 450 kts | 238° |
| 2026-04-25 08:55 | 26.44838 | -102.18784 | 38036 ft | 451 kts | 238° |
| 2026-04-25 08:56 | 26.40932 | -102.24250 | 38055 ft | 451 kts | 238° |
| 2026-04-25 08:56 | 26.37008 | -102.29730 | 38059 ft | 450 kts | 238° |
| 2026-04-25 08:57 | 26.33104 | -102.35179 | 38054 ft | 451 kts | 238° |
| 2026-04-25 08:57 | 26.29181 | -102.40648 | 38049 ft | 452 kts | 238° |
| 2026-04-25 08:58 | 26.25255 | -102.46111 | 38048 ft | 453 kts | 238° |
| 2026-04-25 08:58 | 26.21326 | -102.51575 | 38039 ft | 453 kts | 238° |
| 2026-04-25 08:59 | 26.17399 | -102.57027 | 38020 ft | 453 kts | 238° |
| 2026-04-25 08:59 | 26.13455 | -102.62501 | 38006 ft | 453 kts | 237° |
| 2026-04-25 09:00 | 26.09495 | -102.67984 | 37996 ft | 454 kts | 237° |
| 2026-04-25 09:00 | 26.05547 | -102.73442 | 37988 ft | 454 kts | 237° |
| 2026-04-25 09:01 | 26.01572 | -102.78934 | 37986 ft | 454 kts | 237° |
| 2026-04-25 09:01 | 25.97626 | -102.84377 | 37999 ft | 454 kts | 237° |
| 2026-04-25 09:02 | 25.93677 | -102.89816 | 38008 ft | 453 kts | 237° |
| 2026-04-25 09:02 | 25.89721 | -102.95258 | 38019 ft | 451 kts | 237° |
| 2026-04-25 09:03 | 25.85762 | -103.00690 | 38017 ft | 451 kts | 237° |
| 2026-04-25 09:03 | 25.81843 | -103.06074 | 38016 ft | 451 kts | 237° |
| 2026-04-25 09:04 | 25.77908 | -103.11495 | 38019 ft | 451 kts | 237° |
| 2026-04-25 09:04 | 25.73977 | -103.16893 | 38024 ft | 450 kts | 237° |
| 2026-04-25 09:05 | 25.70040 | -103.22276 | 38039 ft | 450 kts | 237° |
| 2026-04-25 09:05 | 25.66099 | -103.27653 | 38042 ft | 450 kts | 237° |
| 2026-04-25 09:06 | 25.62232 | -103.33073 | 38044 ft | 447 kts | 240° |
| 2026-04-25 09:06 | 25.58945 | -103.38869 | 38057 ft | 441 kts | 247° |
| 2026-04-25 09:07 | 25.56373 | -103.44958 | 38062 ft | 438 kts | 253° |
| 2026-04-25 09:07 | 25.54501 | -103.51318 | 38061 ft | 434 kts | 259° |
| 2026-04-25 09:08 | 25.53168 | -103.57826 | 38068 ft | 433 kts | 261° |
| 2026-04-25 09:08 | 25.51880 | -103.64320 | 38077 ft | 433 kts | 261° |
| 2026-04-25 09:09 | 25.50593 | -103.70844 | 38086 ft | 434 kts | 261° |
| 2026-04-25 09:09 | 25.49309 | -103.77354 | 38085 ft | 434 kts | 261° |
| 2026-04-25 09:10 | 25.48021 | -103.83884 | 38127 ft | 435 kts | 261° |
| 2026-04-25 09:10 | 25.46745 | -103.90403 | 38165 ft | 434 kts | 261° |
| 2026-04-25 09:11 | 25.44830 | -104.00178 | 38206 ft | 435 kts | 261° |
| 2026-04-25 09:11 | 25.43546 | -104.06680 | 38214 ft | 434 kts | 261° |
| 2026-04-25 09:12 | 25.42256 | -104.13178 | 38205 ft | 433 kts | 261° |
| 2026-04-25 09:12 | 25.40962 | -104.19665 | 38194 ft | 433 kts | 261° |
| 2026-04-25 09:13 | 25.39662 | -104.26168 | 38191 ft | 433 kts | 261° |
| 2026-04-25 09:13 | 25.38370 | -104.32616 | 38194 ft | 432 kts | 261° |
| 2026-04-25 09:14 | 25.37076 | -104.39062 | 38201 ft | 431 kts | 261° |
| 2026-04-25 09:14 | 25.35771 | -104.45542 | 38202 ft | 431 kts | 261° |
| 2026-04-25 09:15 | 25.34464 | -104.51996 | 38202 ft | 431 kts | 261° |
| 2026-04-25 09:15 | 25.33157 | -104.58447 | 38210 ft | 431 kts | 261° |
| 2026-04-25 09:16 | 25.31851 | -104.64883 | 38215 ft | 430 kts | 261° |
| 2026-04-25 09:16 | 25.30538 | -104.71315 | 38218 ft | 431 kts | 260° |
| 2026-04-25 09:17 | 25.28552 | -104.80997 | 38238 ft | 430 kts | 260° |
| 2026-04-25 09:18 | 25.27242 | -104.87407 | 38240 ft | 430 kts | 260° |
| 2026-04-25 09:18 | 25.25942 | -104.93835 | 38247 ft | 430 kts | 260° |
| 2026-04-25 09:19 | 25.24625 | -105.00304 | 38255 ft | 430 kts | 260° |
| 2026-04-25 09:19 | 25.23308 | -105.06712 | 38262 ft | 430 kts | 260° |
| 2026-04-25 09:20 | 25.21981 | -105.13148 | 38276 ft | 430 kts | 260° |
| 2026-04-25 09:20 | 25.20645 | -105.19598 | 38285 ft | 430 kts | 260° |
| 2026-04-25 09:21 | 25.19311 | -105.26019 | 38287 ft | 430 kts | 260° |
| 2026-04-25 09:21 | 25.17975 | -105.32428 | 38290 ft | 431 kts | 260° |
| 2026-04-25 09:22 | 25.16636 | -105.38850 | 38293 ft | 431 kts | 260° |
| 2026-04-25 09:22 | 25.15291 | -105.45280 | 38293 ft | 431 kts | 260° |
| 2026-04-25 09:23 | 25.13941 | -105.51719 | 38295 ft | 431 kts | 260° |
| 2026-04-25 09:23 | 25.12588 | -105.58151 | 38313 ft | 431 kts | 260° |
| 2026-04-25 09:24 | 25.11230 | -105.64587 | 38338 ft | 431 kts | 260° |
| 2026-04-25 09:24 | 25.09869 | -105.71009 | 38362 ft | 432 kts | 259° |
| 2026-04-25 09:25 | 25.08502 | -105.77425 | 38383 ft | 432 kts | 259° |
| 2026-04-25 09:25 | 25.07133 | -105.83862 | 38402 ft | 432 kts | 259° |
| 2026-04-25 09:26 | 25.05878 | -105.90335 | 38407 ft | 432 kts | 262° |
| 2026-04-25 09:26 | 25.04735 | -105.96810 | 38419 ft | 433 kts | 261° |
| 2026-04-25 09:27 | 25.03562 | -106.03321 | 38418 ft | 432 kts | 261° |
| 2026-04-25 09:27 | 25.02382 | -106.09806 | 38411 ft | 433 kts | 261° |
| 2026-04-25 09:28 | 25.01194 | -106.16267 | 38401 ft | 433 kts | 261° |
| 2026-04-25 09:28 | 24.99998 | -106.22797 | 38402 ft | 433 kts | 261° |
| 2026-04-25 09:29 | 24.98830 | -106.29259 | 38396 ft | 433 kts | 261° |
| 2026-04-25 09:29 | 24.97638 | -106.35786 | 38384 ft | 433 kts | 261° |
| 2026-04-25 09:30 | 24.96447 | -106.42258 | 38375 ft | 433 kts | 261° |
| 2026-04-25 09:30 | 24.95249 | -106.48743 | 38334 ft | 433 kts | 261° |
| 2026-04-25 09:31 | 24.94048 | -106.55212 | 38277 ft | 433 kts | 261° |
| 2026-04-25 09:31 | 24.92839 | -106.61686 | 38223 ft | 433 kts | 261° |
| 2026-04-25 09:32 | 24.91631 | -106.68153 | 38175 ft | 433 kts | 260° |
| 2026-04-25 09:32 | 24.90411 | -106.74674 | 38102 ft | 433 kts | 260° |
| 2026-04-25 09:33 | 24.89203 | -106.81112 | 38063 ft | 433 kts | 260° |
| 2026-04-25 09:33 | 24.88179 | -106.86552 | 38034 ft | 433 kts | 260° |
| 2026-04-25 09:34 | 24.86758 | -106.94081 | 37987 ft | 433 kts | 260° |
| 2026-04-25 09:34 | 24.85532 | -107.00556 | 37966 ft | 433 kts | 260° |
| 2026-04-25 09:35 | 24.84299 | -107.07049 | 37957 ft | 433 kts | 260° |
| 2026-04-25 09:35 | 24.83070 | -107.13497 | 37949 ft | 434 kts | 260° |
| 2026-04-25 09:36 | 24.81827 | -107.19995 | 37943 ft | 434 kts | 260° |
| 2026-04-25 09:36 | 24.80584 | -107.26466 | 37934 ft | 433 kts | 260° |
| 2026-04-25 09:37 | 24.79339 | -107.32938 | 37921 ft | 434 kts | 260° |
| 2026-04-25 09:37 | 24.77935 | -107.39389 | 37918 ft | 436 kts | 256° |
| 2026-04-25 09:38 | 24.75881 | -107.45648 | 37914 ft | 438 kts | 250° |
| 2026-04-25 09:38 | 24.73143 | -107.51640 | 37902 ft | 441 kts | 244° |
| 2026-04-25 09:39 | 24.69740 | -107.57285 | 37894 ft | 445 kts | 238° |
| 2026-04-25 09:39 | 24.65947 | -107.62689 | 37892 ft | 446 kts | 237° |
| 2026-04-25 09:40 | 24.60258 | -107.70734 | 37893 ft | 446 kts | 237° |
| 2026-04-25 09:40 | 24.56461 | -107.76089 | 37892 ft | 446 kts | 237° |
| 2026-04-25 09:41 | 24.52660 | -107.81446 | 37888 ft | 445 kts | 237° |
| 2026-04-25 09:41 | 24.48847 | -107.86831 | 37887 ft | 446 kts | 237° |
| 2026-04-25 09:42 | 24.45081 | -107.92147 | 37354 ft | 437 kts | 237° |
| 2026-04-25 09:42 | 24.43233 | -107.94746 | 36161 ft | 432 kts | 237° |
| 2026-04-25 09:42 | 24.41408 | -107.97314 | 34676 ft | 432 kts | 237° |
| 2026-04-25 09:43 | 24.39582 | -107.99882 | 33389 ft | 427 kts | 237° |
| 2026-04-25 09:43 | 24.37763 | -108.02432 | 32922 ft | 419 kts | 237° |
| 2026-04-25 09:43 | 24.35979 | -108.04938 | 32583 ft | 424 kts | 237° |
| 2026-04-25 09:43 | 24.34168 | -108.07480 | 32046 ft | 425 kts | 236° |
| 2026-04-25 09:44 | 24.32333 | -108.10053 | 31458 ft | 425 kts | 236° |
| 2026-04-25 09:44 | 24.30522 | -108.12592 | 30842 ft | 426 kts | 236° |
| 2026-04-25 09:44 | 24.28703 | -108.15137 | 30213 ft | 426 kts | 235° |
| 2026-04-25 09:44 | 24.26885 | -108.17681 | 29575 ft | 427 kts | 235° |
| 2026-04-25 09:45 | 24.25048 | -108.20248 | 29135 ft | 422 kts | 235° |
| 2026-04-25 09:45 | 24.23255 | -108.22746 | 28742 ft | 417 kts | 235° |
| 2026-04-25 09:45 | 24.21468 | -108.25234 | 28338 ft | 412 kts | 235° |
| 2026-04-25 09:45 | 24.19701 | -108.27693 | 27941 ft | 408 kts | 235° |
| 2026-04-25 09:46 | 24.17983 | -108.30086 | 27548 ft | 403 kts | 235° |
| 2026-04-25 09:46 | 24.16260 | -108.32487 | 27151 ft | 400 kts | 235° |
| 2026-04-25 09:46 | 24.14544 | -108.34875 | 26751 ft | 396 kts | 235° |
| 2026-04-25 09:46 | 24.12848 | -108.37235 | 26351 ft | 392 kts | 235° |
| 2026-04-25 09:47 | 24.11175 | -108.39559 | 25955 ft | 389 kts | 235° |
| 2026-04-25 09:47 | 24.09502 | -108.41881 | 25558 ft | 386 kts | 235° |
| 2026-04-25 09:47 | 24.07853 | -108.44170 | 25163 ft | 383 kts | 235° |
| 2026-04-25 09:47 | 24.06212 | -108.46449 | 24772 ft | 380 kts | 235° |
| 2026-04-25 09:48 | 24.04588 | -108.48707 | 24388 ft | 377 kts | 235° |
| 2026-04-25 09:48 | 24.02970 | -108.50963 | 24009 ft | 375 kts | 235° |
| 2026-04-25 09:48 | 24.01835 | -108.52544 | 23742 ft | 373 kts | 234° |
| 2026-04-25 09:48 | 24.00790 | -108.53999 | 23495 ft | 372 kts | 234° |
| 2026-04-25 09:49 | 23.99195 | -108.56216 | 23117 ft | 370 kts | 234° |
| 2026-04-25 09:49 | 23.97597 | -108.58432 | 22733 ft | 369 kts | 234° |
| 2026-04-25 09:49 | 23.96023 | -108.60614 | 22351 ft | 368 kts | 234° |
| 2026-04-25 09:49 | 23.94425 | -108.62823 | 21958 ft | 367 kts | 234° |
| 2026-04-25 09:50 | 23.92859 | -108.64989 | 21568 ft | 365 kts | 234° |
| 2026-04-25 09:50 | 23.91282 | -108.67168 | 21177 ft | 364 kts | 234° |
| 2026-04-25 09:50 | 23.89708 | -108.69344 | 20781 ft | 363 kts | 234° |
| 2026-04-25 09:50 | 23.88144 | -108.71507 | 20384 ft | 362 kts | 234° |
| 2026-04-25 09:51 | 23.86590 | -108.73660 | 19991 ft | 361 kts | 234° |
| 2026-04-25 09:51 | 23.85045 | -108.75803 | 19603 ft | 360 kts | 234° |
| 2026-04-25 09:51 | 23.83493 | -108.77953 | 19212 ft | 359 kts | 234° |
| 2026-04-25 09:51 | 23.81958 | -108.80077 | 18823 ft | 358 kts | 234° |
| 2026-04-25 09:52 | 23.80418 | -108.82203 | 18435 ft | 357 kts | 234° |
| 2026-04-25 09:52 | 23.78880 | -108.84325 | 18055 ft | 356 kts | 234° |
| 2026-04-25 09:52 | 23.77331 | -108.86459 | 17668 ft | 355 kts | 234° |
| 2026-04-25 09:52 | 23.75809 | -108.88555 | 17286 ft | 354 kts | 234° |
| 2026-04-25 09:53 | 23.74275 | -108.90665 | 16898 ft | 354 kts | 234° |
| 2026-04-25 09:53 | 23.72751 | -108.92762 | 16510 ft | 353 kts | 234° |
| 2026-04-25 09:53 | 23.71239 | -108.94842 | 16124 ft | 352 kts | 234° |
| 2026-04-25 09:53 | 23.69712 | -108.96942 | 15732 ft | 351 kts | 234° |
| 2026-04-25 09:54 | 23.68213 | -108.99030 | 15349 ft | 350 kts | 236° |
| 2026-04-25 09:54 | 23.66896 | -109.01236 | 14953 ft | 348 kts | 242° |
| 2026-04-25 09:54 | 23.65790 | -109.03645 | 14768 ft | 359 kts | 249° |
| 2026-04-25 09:54 | 23.64860 | -109.06185 | 14805 ft | 365 kts | 251° |
| 2026-04-25 09:55 | 23.63950 | -109.08778 | 14837 ft | 366 kts | 251° |
| 2026-04-25 09:55 | 23.63039 | -109.11379 | 14844 ft | 366 kts | 251° |
| 2026-04-25 09:55 | 23.62137 | -109.13946 | 14869 ft | 366 kts | 251° |
| 2026-04-25 09:55 | 23.61223 | -109.16544 | 14886 ft | 366 kts | 251° |
| 2026-04-25 09:56 | 23.60317 | -109.19110 | 14707 ft | 367 kts | 251° |
| 2026-04-25 09:56 | 23.59387 | -109.21738 | 14223 ft | 367 kts | 251° |
| 2026-04-25 09:56 | 23.58474 | -109.24315 | 13787 ft | 366 kts | 251° |
| 2026-04-25 09:56 | 23.57570 | -109.26865 | 13383 ft | 364 kts | 251° |
| 2026-04-25 09:57 | 23.56658 | -109.29433 | 12919 ft | 363 kts | 251° |
| 2026-04-25 09:57 | 23.55746 | -109.32002 | 12471 ft | 362 kts | 251° |
| 2026-04-25 09:57 | 23.54834 | -109.34563 | 12039 ft | 360 kts | 250° |
| 2026-04-25 09:57 | 23.53943 | -109.37064 | 11627 ft | 358 kts | 250° |
| 2026-04-25 09:58 | 23.53047 | -109.39580 | 11227 ft | 356 kts | 250° |
| 2026-04-25 09:58 | 23.52146 | -109.42110 | 10810 ft | 354 kts | 250° |
| 2026-04-25 09:58 | 23.51260 | -109.44601 | 10395 ft | 353 kts | 250° |
| 2026-04-25 09:58 | 23.50171 | -109.46950 | 10189 ft | 346 kts | 233° |
| 2026-04-25 09:59 | 23.48315 | -109.48544 | 10091 ft | 337 kts | 206° |
| 2026-04-25 09:59 | 23.46136 | -109.49213 | 10017 ft | 312 kts | 193° |
| 2026-04-25 09:59 | 23.44088 | -109.49658 | 10003 ft | 292 kts | 193° |
| 2026-04-25 09:59 | 23.42114 | -109.50108 | 9988 ft | 290 kts | 194° |
| 2026-04-25 10:00 | 23.40138 | -109.50579 | 9895 ft | 291 kts | 194° |
| 2026-04-25 10:00 | 23.38142 | -109.51068 | 9580 ft | 292 kts | 194° |
| 2026-04-25 10:00 | 23.36159 | -109.51561 | 9280 ft | 292 kts | 195° |
| 2026-04-25 10:00 | 23.34167 | -109.52058 | 8991 ft | 292 kts | 194° |
| 2026-04-25 10:01 | 23.32174 | -109.52557 | 8712 ft | 291 kts | 194° |
| 2026-04-25 10:01 | 23.30205 | -109.53050 | 8434 ft | 291 kts | 194° |
| 2026-04-25 10:01 | 23.28242 | -109.53542 | 8150 ft | 290 kts | 194° |
| 2026-04-25 10:01 | 23.26259 | -109.54039 | 7981 ft | 285 kts | 194° |
| 2026-04-25 10:02 | 23.24368 | -109.54513 | 7945 ft | 271 kts | 194° |
| 2026-04-25 10:02 | 23.22587 | -109.54958 | 7973 ft | 254 kts | 194° |
| 2026-04-25 10:02 | 23.20896 | -109.55384 | 7792 ft | 253 kts | 194° |
| 2026-04-25 10:02 | 23.19154 | -109.55823 | 7449 ft | 256 kts | 194° |
| 2026-04-25 10:03 | 23.17422 | -109.56259 | 7133 ft | 258 kts | 194° |
| 2026-04-25 10:03 | 23.15657 | -109.56702 | 6828 ft | 258 kts | 193° |
| 2026-04-25 10:03 | 23.13904 | -109.57140 | 6537 ft | 258 kts | 193° |
| 2026-04-25 10:03 | 23.12171 | -109.57573 | 6247 ft | 258 kts | 193° |
| 2026-04-25 10:04 | 23.10399 | -109.58016 | 5951 ft | 258 kts | 193° |
| 2026-04-25 10:04 | 23.08651 | -109.58451 | 5660 ft | 257 kts | 193° |
| 2026-04-25 10:04 | 23.06905 | -109.58887 | 5374 ft | 257 kts | 193° |
| 2026-04-25 10:04 | 23.05169 | -109.59319 | 5084 ft | 255 kts | 193° |
| 2026-04-25 10:05 | 23.03465 | -109.59745 | 4772 ft | 242 kts | 193° |
| 2026-04-25 10:05 | 23.01880 | -109.60141 | 4526 ft | 229 kts | 193° |
| 2026-04-25 10:05 | 23.00359 | -109.60520 | 4279 ft | 217 kts | 193° |
| 2026-04-25 10:05 | 22.98972 | -109.61022 | 4032 ft | 208 kts | 214° |
| 2026-04-25 10:06 | 22.98060 | -109.62176 | 3787 ft | 200 kts | 249° |
| 2026-04-25 10:06 | 22.97786 | -109.63615 | 3603 ft | 191 kts | 266° |
| 2026-04-25 10:06 | 22.97675 | -109.65022 | 3434 ft | 184 kts | 266° |
| 2026-04-25 10:06 | 22.97575 | -109.66388 | 3320 ft | 178 kts | 266° |
| 2026-04-25 10:07 | 22.97469 | -109.67690 | 3201 ft | 180 kts | 265° |
| 2026-04-25 10:07 | 22.97590 | -109.69019 | 3010 ft | 177 kts | 299° |
| 2026-04-25 10:07 | 22.98443 | -109.69913 | 2879 ft | 170 kts | 337° |
| 2026-04-25 10:07 | 22.99547 | -109.70264 | 2874 ft | 157 kts | 351° |
| 2026-04-25 10:08 | 23.00625 | -109.70418 | 2843 ft | 153 kts | 355° |
| 2026-04-25 10:08 | 23.01330 | -109.70493 | 2807 ft | 153 kts | 355° |
| 2026-04-25 10:08 | 23.02738 | -109.70639 | 2539 ft | 149 kts | 355° |
| 2026-04-25 10:08 | 23.03765 | -109.70753 | 2332 ft | 148 kts | 355° |
| 2026-04-25 10:09 | 23.04802 | -109.70878 | 2139 ft | 149 kts | 355° |
| 2026-04-25 10:09 | 23.05827 | -109.70998 | 1968 ft | 148 kts | 355° |
| 2026-04-25 10:09 | 23.06855 | -109.71117 | 1725 ft | 149 kts | 355° |
| 2026-04-25 10:09 | 23.07888 | -109.71229 | 1512 ft | 147 kts | 356° |
| 2026-04-25 10:10 | 23.08900 | -109.71338 | 1340 ft | 147 kts | 355° |
| 2026-04-25 10:10 | 23.09917 | -109.71466 | 1181 ft | 147 kts | 354° |
| 2026-04-25 10:10 | 23.10941 | -109.71587 | 952 ft | 147 kts | 354° |
| 2026-04-25 10:10 | 23.11951 | -109.71696 | 709 ft | 144 kts | 354° |
| 2026-04-25 10:11 | 23.12952 | -109.71805 | 519 ft | 144 kts | 353° |
| 2026-04-25 10:11 | 23.13953 | -109.71927 | 362 ft | 142 kts | 353° |
| 2026-04-25 10:11 | 23.14887 | -109.72038 | 367 ft | 123 kts | 352° |
| 2026-04-25 10:11 | 23.15605 | -109.72124 | 383 ft | 86 kts | 353° |
| 2026-04-25 10:12 | 23.15975 | -109.72166 | 392 ft | 27 kts | 352° |
| 2026-04-25 10:12 | 23.16152 | -109.72189 | 394 ft | 20 kts | 353° |
| 2026-04-25 10:12 | 23.16413 | -109.72214 | 394 ft | 18 kts | 354° |
| 2026-04-25 10:13 | 23.16522 | -109.72218 | 391 ft | 11 kts | 24° |
| 2026-04-25 10:13 | 23.16551 | -109.72139 | 387 ft | 9 kts | 92° |
| 2026-04-25 10:13 | 23.16557 | -109.72073 | 383 ft | 5 kts | 87° |
| 2026-04-25 10:13 | 23.16557 | -109.72070 | 383 ft | 0 kts | 86° |
| 2026-04-25 10:14 | 23.16557 | -109.72068 | 383 ft | 1 kts | 86° |
| 2026-04-25 10:14 | 23.16553 | -109.72025 | 380 ft | 8 kts | 114° |
| 2026-04-25 10:14 | 23.16497 | -109.72003 | 380 ft | 9 kts | 174° |
| 2026-04-25 10:14 | 23.16429 | -109.71995 | 381 ft | 9 kts | 174° |
| 2026-04-25 10:15 | 23.16357 | -109.71988 | 382 ft | 11 kts | 174° |
| 2026-04-25 10:15 | 23.16273 | -109.71978 | 382 ft | 14 kts | 174° |
| 2026-04-25 10:15 | 23.16156 | -109.71966 | 381 ft | 18 kts | 174° |
| 2026-04-25 10:15 | 23.16022 | -109.71953 | 377 ft | 20 kts | 174° |
| 2026-04-25 10:16 | 23.15881 | -109.71939 | 376 ft | 18 kts | 174° |
| 2026-04-25 10:16 | 23.15810 | -109.71931 | 375 ft | 10 kts | 173° |
| 2026-04-25 10:16 | 23.15737 | -109.71923 | 373 ft | 3 kts | 172° |
| 2026-04-25 10:16 | 23.15727 | -109.71919 | 373 ft | 1 kts | 151° |
| 2026-04-25 10:17 | 23.15717 | -109.71883 | 370 ft | 8 kts | 96° |
| 2026-04-25 10:17 | 23.15694 | -109.71835 | 367 ft | 2 kts | 186° |
| 2026-04-25 10:17 | 23.15693 | -109.71836 | 367 ft | 0 kts | 193° |
| 2026-04-25 10:17 | 23.15673 | -109.71837 | 367 ft | 6 kts | 176° |
| 2026-04-25 10:18 | 23.15590 | -109.71823 | 366 ft | 13 kts | 168° |
| 2026-04-25 10:18 | 23.15509 | -109.71813 | 365 ft | 5 kts | 174° |
| 2026-04-25 10:18 | 23.15466 | -109.71808 | 364 ft | 0 kts | 174° |
| 2026-04-25 10:18 | 23.15457 | -109.71805 | 364 ft | 2 kts | 152° |
| 2026-04-25 10:19 | 23.15451 | -109.71785 | 363 ft | 5 kts | 88° |
| 2026-04-25 10:19 | 23.15452 | -109.71766 | 361 ft | 0 kts | 85° |
| 2026-04-25 10:19 | 23.15453 | -109.71760 | 361 ft | 2 kts | 85° |
| 2026-04-25 10:19 | 23.15453 | -109.71757 | 361 ft | 0 kts | 85° |